• Join FlightAware (Why Join?)
  • Login
  • US Flag 
04:03PM EDT


 

Airport Tracker/Info


-or-


 

Live Flight TrackerFlight Track Log ✈ LOF3416 ✈ 21-Apr-2013 ✈ KIAD - KDAY

Flight Track Log - Related Links

Times and Time Zones

All times are in EDT time to prevent confusion due to time zone crossing. See the LOF3416 flight status page for this flight to view local times or setup timezone preferences in your user account.

Time Position Orientation Groundspeed Altitude Reporting Facility
EDT Latitude Longitude Course Direction KTS MPH feet Rate Location/Type
10:21PM 38.9500 -77.5167 237° Southwest 179 206 1,700  Level Potomac TRACON
10:22PM 38.9167 -77.5833 237° Southwest 227 261 3,500 1,680 Climbing Potomac TRACON
10:23PM 38.9000 -77.6667 256° West 244 281 5,100 1,620 Climbing Potomac TRACON
10:23PM 38.9053 -77.7122 278° West 256 295 5,900 2,160 Climbing Washington Center
10:24PM 38.9139 -77.8033 277° West 272 313 8,200 2,400 Climbing Washington Center
10:25PM 38.9225 -77.9022 276° West 287 330 10,700 2,100 Climbing Washington Center
10:26PM 38.9350 -78.0067 279° West 304 350 12,400 1,800 Climbing Washington Center
10:27PM 38.9494 -78.1219 279° West 321 369 14,300 1,800 Climbing Washington Center
10:28PM 38.9614 -78.2372 278° West 327 376 16,100 1,980 Climbing Washington Center
10:29PM 38.9650 -78.3522 272° West 327 376 18,300 1,620 Climbing Washington Center
10:30PM 38.9686 -78.4669 272° West 327 376 19,400 1,200 Climbing Washington Center
10:31PM 38.9742 -78.5875 273° West 327 376 20,700 1,260 Climbing Washington Center
10:32PM 38.9772 -78.7106 272° West 335 386 22,000 1,260 Climbing Washington Center
10:33PM 38.9803 -78.8361 272° West 348 400 23,300 1,320 Climbing Washington Center
10:34PM 38.9850 -78.9644 273° West 359 413 24,700 1,320 Climbing Washington Center
10:35PM 38.9875 -79.0928 271° West 364 419 26,000 1,200 Climbing Washington Center
10:36PM 38.9900 -79.2183 272° West 364 419 27,100 960 Climbing Washington Center
10:37PM 38.9922 -79.3494 271° West 364 419 28,000 360 Climbing Washington Center
10:38PM 38.9964 -79.4858 272° West 375 432 27,900 -60 Descending Washington Center
10:39PM 39.0003 -79.6169 272° West 395 455 27,900  Level Washington Center
10:40PM 39.0031 -79.7775 271° West 415 478 28,000  Climbing Washington Center
10:41PM 39.0061 -79.9300 272° West 426 490 27,900 -60 Descending Washington Center
10:42PM 39.0069 -80.0794 270° West 426 490 27,900  Level Washington Center
10:43PM 39.0075 -80.2339 270° West 424 488 27,900  Level Indianapolis Center
10:44PM 39.0092 -80.3853 271° West 424 488 27,900  Level Indianapolis Center
10:45PM 39.0189 -80.5367 275° West 427 491 27,900  Level Indianapolis Center
10:46PM 39.0425 -80.6875 281° West 430 495 27,900  Level Indianapolis Center
10:47PM 39.0625 -80.8372 280° West 427 491 27,900 -360 Level Indianapolis Center
10:48PM 39.0842 -80.9875 281° West 428 493 27,200 -960 Descending Indianapolis Center
10:49PM 39.1044 -81.1361 280° West 425 489 26,000 -1,140 Descending Indianapolis Center
10:50PM 39.1253 -81.2839 280° West 422 486 24,900 -1,260 Descending Indianapolis Center
10:51PM 39.1483 -81.4606 280° West 419 482 23,500 -1,320 Descending Indianapolis Center
10:52PM 39.1686 -81.6072 280° West 419 482 22,300 -840 Descending Indianapolis Center
10:53PM 39.1872 -81.7531 279° West 417 480 21,900 -240 Descending Indianapolis Center
10:54PM 39.2047 -81.8956 279° West 408 470 21,900  Level Indianapolis Center
10:55PM 39.2239 -82.0392 280° West 409 471 21,900  Level Indianapolis Center
10:56PM 39.2428 -82.1858 279° West 415 478 21,900  Level Indianapolis Center
10:57PM 39.2614 -82.3347 279° West 420 483 21,900 -600 Level Indianapolis Center
10:58PM 39.2811 -82.4883 279° West 409 471 20,800 -1,440 Descending Indianapolis Center
10:59PM 39.2981 -82.6283 279° West 393 452 19,000 -1,620 Descending Indianapolis Center
11:00PM 39.3147 -82.7661 279° West 386 444 17,600 -1,620 Descending Indianapolis Center
11:01PM 39.3311 -82.9072 279° West 391 450 15,800 -1,860 Descending Indianapolis Center
11:02PM 39.3472 -83.0389 279° West 372 428 13,900 -1,920 Descending Indianapolis Center
11:03PM 39.3631 -83.1708 279° West 368 423 12,000 -1,500 Descending Indianapolis Center
11:04PM 39.3789 -83.3011 279° West 359 413 11,000 -660 Descending Indianapolis Center
11:05PM 39.3972 -83.4247 281° West 353 406 10,700 -540 Descending Indianapolis Center
11:06PM 39.4458 -83.5331 300° West 343 395 10,000 -360 Descending Indianapolis Center
11:07PM 39.4972 -83.6314 304° West 333 383 10,000 -360 Level Indianapolis Center
11:09PM 39.5403 -83.7564 294° West  Level FlightAware Approximate
11:09PM 39.5967 -83.8294 294° West 300 345 8,900  Level Indianapolis Center
11:10PM 39.6372 -83.9142 302° West 278 320 7,500 -1,560 Descending Indianapolis Center
11:11PM 39.6700 -83.9781 304° West 254 292 6,000 -1,740 Descending Indianapolis Center
11:12PM 39.7133 -84.0678 302° West 250 288 4,000 -1,440 Descending Indianapolis Center
11:13PM 39.7494 -84.1403 303° West 239 275 3,000 -540 Descending Indianapolis Center
11:14PM 39.7822 -84.2044 304° West 202 232 3,000  Level Indianapolis Center
11:15PM 39.8075 -84.2539 304° West 155 178 3,000  Level Indianapolis Center